»·PEaware :: N916BA KAJO-KVCV

N916BA :: KAJO-KVCV

FLIGHT INFORMATION

Flight Status: Arrived
Operator: Privately registered:
United States
More flights under this callsign
Pilot: Patricio R. (14780)
Aircraft: CESSNA 172 SKYHAWK
(C172)
More flights by this aircraft type
Origin: KAJO Corona Mun
United States
Destination: KVCV Socal Logistics
United States
More flights between these airports :: More routes between these airports
Route: +PDZ V442 APLES
File this flight plan on PilotEdge
Remarks:
Altitude:
(Current/Filed)
8,000ft
Speed:
(Current/Filed)
100kts
Departed: 19-Aug-18 06:04 PM
Arrived: 19-Aug-18 07:00 PM
Distance/Time
Traveled:
43nm/0:56
Distance/Time
To Go:
Arrived

Flight Plot

Page will automatically refresh every two minutes.


Map Options




Map Legend


Flown Route
Filed Route
Departure Airport
Arrival Airport
Navaid (VOR, NDB)
Fix

Horizontal Profiles

Position Reports

Time Latitude Longitude Heading Altitude Ground
Speed
19-Aug-18 17:53 33.896978 -117.607296 180 537ft 0kts
19-Aug-18 17:54 33.896978 -117.607296 180 537ft 0kts
19-Aug-18 17:55 33.896978 -117.607296 180 537ft 0kts
19-Aug-18 17:56 33.896978 -117.607296 180 537ft 0kts
19-Aug-18 17:57 33.896978 -117.607296 180 537ft 0kts
19-Aug-18 17:58 33.897071 -117.607469 9 537ft 4kts
19-Aug-18 17:59 33.897251 -117.602592 88 537ft 24kts
19-Aug-18 18:00 33.897301 -117.597747 84 537ft 0kts
19-Aug-18 18:01 33.897301 -117.597747 84 537ft 0kts
19-Aug-18 18:02 33.897301 -117.597747 84 537ft 0kts
19-Aug-18 18:03 33.897301 -117.597747 84 537ft 0kts
19-Aug-18 18:04 33.897730 -117.597914 274 537ft 11kts
19-Aug-18 18:05 33.898960 -117.618084 308 1003ft 73kts
19-Aug-18 18:06 33.912838 -117.601021 75 1759ft 91kts
19-Aug-18 18:07 33.915952 -117.570722 84 2489ft 92kts
19-Aug-18 18:08 33.917486 -117.539596 87 3182ft 94kts
19-Aug-18 18:09 33.930759 -117.513978 38 3862ft 94kts
19-Aug-18 18:10 33.951390 -117.496721 328 4467ft 89kts
19-Aug-18 18:11 33.940046 -117.509145 192 5074ft 77kts
19-Aug-18 18:12 33.922878 -117.524376 228 5650ft 80kts
19-Aug-18 18:13 33.924153 -117.544873 355 6228ft 100kts
19-Aug-18 18:14 33.946054 -117.525195 43 6823ft 100kts
19-Aug-18 18:15 33.970537 -117.503902 19 7054ft 132kts
19-Aug-18 18:16 33.999910 -117.492921 13 7834ft 103kts
19-Aug-18 18:17 34.026130 -117.480420 32 8342ft 101kts
19-Aug-18 18:18 34.050337 -117.463112 37 8814ft 100kts
19-Aug-18 18:19 34.071965 -117.438658 53 9053ft 122kts
19-Aug-18 18:20 34.102905 -117.417791 22 9007ft 127kts
19-Aug-18 18:21 34.132772 -117.399344 27 9024ft 116kts
19-Aug-18 18:22 34.162588 -117.383942 21 9044ft 116kts
19-Aug-18 18:23 34.192246 -117.366841 35 9107ft 121kts
19-Aug-18 18:24 34.221742 -117.344192 28 9056ft 129kts
19-Aug-18 18:25 34.254095 -117.324581 32 9037ft 130kts
19-Aug-18 18:26 34.285791 -117.304392 34 9033ft 132kts
19-Aug-18 18:27 34.315365 -117.279403 35 9064ft 129kts
19-Aug-18 18:28 34.344483 -117.254558 25 9082ft 128kts
19-Aug-18 18:29 34.377940 -117.236931 25 8967ft 135kts
19-Aug-18 18:30 34.400144 -117.225155 21 8981ft 132kts
19-Aug-18 18:31 34.432586 -117.206761 26 8994ft 130kts
19-Aug-18 18:32 34.464856 -117.188291 21 9029ft 127kts
19-Aug-18 18:33 34.498026 -117.172779 20 9020ft 128kts
19-Aug-18 18:34 34.531049 -117.155339 27 8987ft 130kts
19-Aug-18 18:35 34.563853 -117.136670 8 8958ft 129kts
19-Aug-18 18:36 34.599006 -117.141123 348 8956ft 128kts
19-Aug-18 18:37 34.633677 -117.152013 338 8912ft 129kts
19-Aug-18 18:38 34.660186 -117.165580 329 8895ft 128kts
19-Aug-18 18:39 34.692910 -117.183344 335 8853ft 130kts
19-Aug-18 18:40 34.725822 -117.201138 315 8746ft 134kts
19-Aug-18 18:41 34.751368 -117.235437 300 8018ft 136kts
19-Aug-18 18:42 34.770649 -117.272037 292 7377ft 134kts
19-Aug-18 18:43 34.785742 -117.310985 290 6743ft 132kts
19-Aug-18 18:44 34.791843 -117.352498 266 6222ft 124kts
19-Aug-18 18:45 34.772295 -117.379560 193 5647ft 118kts
19-Aug-18 18:46 34.740675 -117.383250 188 5223ft 117kts
19-Aug-18 18:47 34.707537 -117.386468 183 4625ft 121kts
19-Aug-18 18:48 34.682017 -117.386813 183 4138ft 75kts
19-Aug-18 18:49 34.660350 -117.386865 183 3656ft 78kts
19-Aug-18 18:50 34.638552 -117.386843 185 3191ft 77kts
19-Aug-18 18:51 34.617365 -117.387091 183 3534ft 75kts
19-Aug-18 18:52 34.602314 -117.402411 249 4070ft 83kts
19-Aug-18 18:53 34.610086 -117.430390 302 4071ft 100kts
19-Aug-18 18:54 34.632177 -117.435176 87 3958ft 112kts
19-Aug-18 18:55 34.610802 -117.411635 141 3599ft 109kts
19-Aug-18 18:56 34.601030 -117.383701 106 3372ft 109kts
19-Aug-18 18:57 34.617871 -117.377681 265 3710ft 105kts
19-Aug-18 18:58 34.604306 -117.404395 174 3845ft 109kts
19-Aug-18 18:59 34.599407 -117.379990 76 3528ft 107kts
19-Aug-18 19:00 34.605765 -117.359261 234 2981ft 74kts
19-Aug-18 19:01 34.595839 -117.372162 223 2856ft 33kts
19-Aug-18 19:02 34.591585 -117.374081 194 2865ft 20kts
19-Aug-18 19:03 34.590340 -117.374423 305 2868ft 0kts

Navigation Log

Ident Type
Flight plan parsing failed, navigation log unavailable